createdAt,value
2022-12-19T00:04:45.386Z,96.13
2022-12-19T00:09:47.420Z,95.99
2022-12-19T00:14:49.552Z,96.21
2022-12-19T00:19:53.203Z,96.30
2022-12-19T00:24:55.536Z,96.35
2022-12-19T00:29:57.253Z,96.43
2022-12-19T00:35:01.661Z,96.22
2022-12-19T00:40:04.546Z,96.38
2022-12-19T00:45:07.441Z,96.43
2022-12-19T00:50:11.378Z,95.89
2022-12-19T00:55:18.523Z,95.99
2022-12-19T01:00:21.824Z,96.17
2022-12-19T01:05:25.269Z,95.99
2022-12-19T01:10:27.588Z,96.08
2022-12-19T01:15:29.588Z,95.76
2022-12-19T01:20:33.105Z,95.26
2022-12-19T01:25:36.885Z,95.40
2022-12-19T01:30:41.970Z,95.27
2022-12-19T01:35:47.624Z,95.35
2022-12-19T01:40:51.480Z,94.68
2022-12-19T01:45:57.163Z,94.93
2022-12-19T01:51:02.871Z,95.21
2022-12-19T01:56:07.635Z,94.70
2022-12-19T02:01:09.717Z,94.63
2022-12-19T02:06:18.951Z,94.44
2022-12-19T02:11:21.113Z,94.51
2022-12-19T02:16:36.794Z,94.44
2022-12-19T02:27:42.019Z,94.39
2022-12-19T02:32:51.779Z,94.33
2022-12-19T02:38:03.653Z,94.74
2022-12-19T02:43:11.473Z,94.21
2022-12-19T02:48:19.275Z,94.94
2022-12-19T02:53:23.619Z,94.51
2022-12-19T02:58:49.045Z,94.17
2022-12-19T03:04:04.275Z,93.84
2022-12-19T03:09:16.236Z,93.82
2022-12-19T03:14:20.933Z,93.86
2022-12-19T03:19:24.541Z,93.53
2022-12-19T03:24:26.785Z,93.50
2022-12-19T03:29:33.133Z,93.80
2022-12-19T03:34:41.607Z,93.27
2022-12-19T03:39:49.196Z,93.49
2022-12-19T03:44:53.934Z,93.70
2022-12-19T03:49:57.780Z,94.48
2022-12-19T03:55:06.575Z,94.59
2022-12-19T04:00:11.901Z,94.33
2022-12-19T04:05:19.574Z,94.46
2022-12-19T04:10:25.070Z,94.75
2022-12-19T04:15:35.044Z,94.60
2022-12-19T04:20:43.086Z,94.48
2022-12-19T04:25:48.323Z,94.46
2022-12-19T04:30:50.980Z,94.25
2022-12-19T04:35:54.589Z,93.78
2022-12-19T04:40:56.304Z,93.55
2022-12-19T04:45:58.455Z,93.63
2022-12-19T04:51:02.084Z,93.65
2022-12-19T04:56:06.013Z,93.05
2022-12-19T05:01:08.671Z,92.45
2022-12-19T05:06:14.387Z,92.35
2022-12-19T05:11:19.759Z,92.30
2022-12-19T05:16:21.947Z,91.83
2022-12-19T05:21:25.332Z,91.38
2022-12-19T05:26:27.537Z,90.74
2022-12-19T05:31:29.745Z,91.07
2022-12-19T05:36:33.304Z,90.31
2022-12-19T05:41:35.545Z,89.76
2022-12-19T05:46:37.427Z,89.27
2022-12-19T05:51:40.929Z,88.68
2022-12-19T05:56:42.850Z,88.19
2022-12-19T06:01:45.242Z,87.88
2022-12-19T06:06:48.390Z,87.25
2022-12-19T06:11:50.509Z,86.75
2022-12-19T06:16:52.633Z,86.57
2022-12-19T06:21:56.163Z,85.61
2022-12-19T06:26:58.350Z,85.58
2022-12-19T06:32:00.428Z,85.15
2022-12-19T06:37:08.135Z,84.18
2022-12-19T06:42:10.722Z,83.60
2022-12-19T06:47:12.808Z,83.23
2022-12-19T06:52:16.437Z,83.72
2022-12-19T06:57:18.786Z,83.10
2022-12-19T07:02:27.713Z,82.42
2022-12-19T07:07:31.486Z,81.61
2022-12-19T07:12:33.615Z,81.03
2022-12-19T07:17:35.700Z,81.12
2022-12-19T07:22:39.566Z,81.06
2022-12-19T07:27:41.740Z,80.60
2022-12-19T07:32:43.467Z,79.74
2022-12-19T07:37:47.155Z,79.53
2022-12-19T07:42:48.953Z,78.61
2022-12-19T07:47:51.241Z,78.29
2022-12-19T07:52:54.410Z,77.67
2022-12-19T07:57:56.568Z,77.13
2022-12-19T08:02:59.194Z,76.15
2022-12-19T08:08:02.606Z,75.98
2022-12-19T08:13:04.699Z,75.51
2022-12-19T08:18:06.462Z,75.69
2022-12-19T08:23:09.568Z,74.86
2022-12-19T08:28:11.382Z,74.94
2022-12-19T08:33:13.116Z,74.86
2022-12-19T08:38:16.785Z,74.28
2022-12-19T08:43:18.484Z,74.53
2022-12-19T08:48:20.372Z,74.11
2022-12-19T08:53:26.633Z,73.82
2022-12-19T08:58:29.871Z,73.59
2022-12-19T09:03:44.182Z,73.02
2022-12-19T09:09:00.023Z,72.74
2022-12-19T09:14:02.492Z,71.91
2022-12-19T09:19:04.485Z,71.62
2022-12-19T09:24:10.070Z,71.20
2022-12-19T09:29:20.302Z,70.47
2022-12-19T09:34:24.366Z,70.33
2022-12-19T09:39:37.191Z,71.05
2022-12-19T09:44:56.496Z,70.24
2022-12-19T09:49:59.576Z,70.19
2022-12-19T09:55:06.280Z,69.63
2022-12-19T10:00:13.472Z,69.93
2022-12-19T10:05:46.657Z,70.11
2022-12-19T10:12:38.035Z,70.14
2022-12-19T10:16:25.623Z,69.74
2022-12-19T10:22:07.597Z,69.88
2022-12-19T10:26:59.633Z,69.68
2022-12-19T10:32:08.215Z,69.39
2022-12-19T10:37:26.626Z,69.57
2022-12-19T10:42:46.322Z,69.59
2022-12-19T10:47:51.759Z,69.69
2022-12-19T10:52:55.891Z,69.81
2022-12-19T10:58:00.160Z,70.09
2022-12-19T11:03:13.222Z,70.67
2022-12-19T11:08:21.181Z,72.60
2022-12-19T11:18:22.320Z,73.38
2022-12-19T11:29:15.977Z,75.93
2022-12-19T11:30:41.547Z,77.75
2022-12-19T11:35:18.161Z,81.62
2022-12-19T11:40:31.438Z,83.08
2022-12-19T11:45:45.346Z,82.56
2022-12-19T11:50:59.858Z,83.53
2022-12-19T11:56:16.264Z,85.85
2022-12-19T12:01:36.480Z,87.57
2022-12-19T12:06:47.403Z,89.56
2022-12-19T12:15:47.234Z,91.83
2022-12-19T12:31:01.482Z,93.57
2022-12-19T12:31:51.533Z,95.10
2022-12-19T12:31:54.265Z,96.09
2022-12-19T12:35:28.680Z,97.03
2022-12-19T12:40:23.940Z,98.09
2022-12-19T12:45:35.082Z,99.02
2022-12-19T12:50:41.181Z,99.46
2022-12-19T12:55:43.077Z,100.00
2022-12-19T13:01:09.043Z,100.00
2022-12-19T13:06:26.062Z,100.00
2022-12-19T13:11:41.190Z,100.00
2022-12-19T13:16:51.873Z,100.00
2022-12-19T13:22:18.289Z,100.00
2022-12-19T13:27:36.270Z,100.00
2022-12-19T13:33:07.364Z,100.00
2022-12-19T13:39:54.016Z,100.00
2022-12-19T13:43:44.245Z,100.00
2022-12-19T13:48:49.499Z,100.00
2022-12-19T13:53:59.622Z,100.00
2022-12-19T13:59:04.238Z,100.00
2022-12-19T14:04:08.743Z,100.00
2022-12-19T14:11:26.193Z,100.00
2022-12-19T14:15:13.407Z,100.00
2022-12-19T14:22:02.404Z,100.00
2022-12-19T14:28:22.203Z,100.00
2022-12-19T14:31:14.533Z,100.00
2022-12-19T14:36:26.492Z,100.00
2022-12-19T14:41:43.549Z,100.00
2022-12-19T14:54:07.606Z,100.00
2022-12-19T14:54:35.848Z,100.00
2022-12-19T14:58:52.969Z,100.00
2022-12-19T15:03:31.822Z,100.00
2022-12-19T15:09:34.279Z,100.00
2022-12-19T15:14:57.105Z,100.00
2022-12-19T15:19:27.066Z,100.00
2022-12-19T15:24:28.908Z,100.00
2022-12-19T15:29:34.092Z,100.00
2022-12-19T15:34:41.590Z,100.00
2022-12-19T15:39:47.115Z,100.00
2022-12-19T15:44:52.958Z,100.00
2022-12-19T15:49:54.708Z,100.00
2022-12-19T15:54:56.563Z,100.00
2022-12-19T16:00:02.363Z,100.00
2022-12-19T16:05:05.204Z,100.00
2022-12-19T16:10:08.870Z,100.00
2022-12-19T16:15:19.798Z,100.00
2022-12-19T16:20:23.861Z,100.00
2022-12-19T16:25:32.475Z,100.00
2022-12-19T16:30:35.760Z,100.00
2022-12-19T16:40:59.318Z,100.00
2022-12-19T16:46:05.740Z,100.00
2022-12-19T16:51:16.715Z,100.00
2022-12-19T16:56:24.566Z,100.00
2022-12-19T17:01:28.531Z,100.00
2022-12-19T17:06:30.998Z,100.00
2022-12-19T17:11:33.489Z,100.00
2022-12-19T17:16:37.466Z,100.00
2022-12-19T17:21:39.308Z,100.00
2022-12-19T17:26:41.611Z,100.00
2022-12-19T17:31:45.174Z,100.00
2022-12-19T17:36:47.315Z,100.00
2022-12-19T17:41:49.925Z,100.00
2022-12-19T17:46:53.201Z,100.00
2022-12-19T17:51:55.871Z,100.00
2022-12-19T17:56:58.374Z,100.00
2022-12-19T18:02:01.929Z,100.00
2022-12-19T18:07:09.748Z,100.00
2022-12-19T18:12:11.510Z,100.00
2022-12-19T18:17:21.591Z,100.00
2022-12-19T18:22:23.393Z,100.00
2022-12-19T18:27:25.122Z,100.00
2022-12-19T18:32:28.460Z,100.00
2022-12-19T18:37:30.852Z,100.00
2022-12-19T18:42:32.983Z,100.00
2022-12-19T18:47:36.430Z,100.00
2022-12-19T18:52:38.730Z,100.00
2022-12-19T18:57:40.464Z,100.00
2022-12-19T19:02:49.093Z,100.00
2022-12-19T19:07:51.383Z,100.00
2022-12-19T19:12:53.970Z,100.00
2022-12-19T19:17:59.960Z,100.00
2022-12-19T19:23:02.575Z,100.00
2022-12-19T19:28:05.395Z,100.00
2022-12-19T19:33:13.524Z,100.00
2022-12-19T19:38:17.001Z,100.00
2022-12-19T19:43:21.735Z,100.00
2022-12-19T19:48:25.645Z,100.00
2022-12-19T19:53:28.396Z,100.00
2022-12-19T19:58:30.974Z,100.00
2022-12-19T20:03:36.241Z,100.00
2022-12-19T20:08:39.971Z,100.00
2022-12-19T20:13:43.360Z,100.00
2022-12-19T20:18:49.588Z,100.00
2022-12-19T20:23:53.805Z,100.00
2022-12-19T20:28:56.521Z,100.00
2022-12-19T20:34:00.115Z,100.00
2022-12-19T20:39:02.570Z,100.00
2022-12-19T20:44:05.055Z,100.00
2022-12-19T20:49:09.454Z,100.00
2022-12-19T20:54:11.628Z,100.00
2022-12-19T20:59:13.717Z,100.00
2022-12-19T21:04:17.454Z,100.00
2022-12-19T21:09:19.651Z,100.00
2022-12-19T21:14:21.425Z,100.00
2022-12-19T21:19:25.001Z,100.00
2022-12-19T21:24:26.865Z,100.00
2022-12-19T21:29:29.520Z,100.00
2022-12-19T21:34:32.797Z,100.00
2022-12-19T21:39:34.931Z,100.00
2022-12-19T21:44:37.397Z,100.00
2022-12-19T21:49:40.768Z,100.00
2022-12-19T21:54:42.953Z,100.00
2022-12-19T21:59:45.040Z,100.00
2022-12-19T22:04:49.865Z,100.00
2022-12-19T22:09:52.268Z,100.00
2022-12-19T22:14:54.101Z,100.00
2022-12-19T22:19:57.542Z,100.00
2022-12-19T22:24:59.636Z,100.00
2022-12-19T22:30:06.764Z,100.00
2022-12-19T22:35:14.355Z,100.00
2022-12-19T22:40:16.617Z,100.00
2022-12-19T22:45:18.729Z,100.00
2022-12-19T22:50:22.391Z,100.00
2022-12-19T22:55:24.497Z,100.00
2022-12-19T23:00:26.240Z,100.00
2022-12-19T23:05:29.965Z,100.00
2022-12-19T23:10:32.420Z,100.00
2022-12-19T23:15:35.168Z,100.00
2022-12-19T23:20:38.846Z,100.00
2022-12-19T23:25:42.415Z,100.00
2022-12-19T23:30:44.537Z,100.00
2022-12-19T23:35:47.983Z,100.00
2022-12-19T23:40:49.905Z,99.48
2022-12-19T23:45:52.101Z,99.09
2022-12-19T23:51:00.087Z,98.66
2022-12-19T23:56:03.794Z,98.34
